createdAt,value
2022-08-28T00:01:24.651Z,27.20
2022-08-28T00:04:12.216Z,27.20
2022-08-28T00:06:59.741Z,27.20
2022-08-28T00:09:47.297Z,27.00
2022-08-28T00:12:36.827Z,26.90
2022-08-28T00:15:30.596Z,26.90
2022-08-28T00:18:18.942Z,26.90
2022-08-28T00:21:07.211Z,26.90
2022-08-28T00:23:54.841Z,26.90
2022-08-28T00:27:01.596Z,26.90
2022-08-28T00:29:49.257Z,26.80
2022-08-28T00:32:36.837Z,27.00
2022-08-28T00:35:25.351Z,27.00
2022-08-28T00:38:15.007Z,27.00
2022-08-28T00:41:04.856Z,27.10
2022-08-28T00:44:27.637Z,27.10
2022-08-28T00:47:15.157Z,27.10
2022-08-28T00:50:05.527Z,27.00
2022-08-28T00:53:00.950Z,27.00
2022-08-28T00:55:50.456Z,27.10
2022-08-28T00:58:40.266Z,27.00
2022-08-28T01:01:27.770Z,27.00
2022-08-28T01:04:19.571Z,27.10
2022-08-28T01:07:11.068Z,27.10
2022-08-28T01:09:59.693Z,27.10
2022-08-28T01:12:50.127Z,27.10
2022-08-28T01:15:40.425Z,27.10
2022-08-28T01:18:28.966Z,27.20
2022-08-28T01:21:43.030Z,27.20
2022-08-28T01:24:32.736Z,27.00
2022-08-28T01:27:23.975Z,27.00
2022-08-28T01:30:21.761Z,27.00
2022-08-28T01:33:09.527Z,27.20
2022-08-28T01:35:59.863Z,27.20
2022-08-28T01:38:56.071Z,27.20
2022-08-28T01:41:48.071Z,27.30
2022-08-28T01:44:35.598Z,27.20
2022-08-28T01:47:23.433Z,27.30
2022-08-28T01:50:16.286Z,27.00
2022-08-28T01:53:07.652Z,26.90
2022-08-28T01:56:04.939Z,27.10
2022-08-28T01:58:53.031Z,26.90
2022-08-28T02:01:43.119Z,26.60
2022-08-28T02:04:32.382Z,26.90
2022-08-28T02:07:20.570Z,26.90
2022-08-28T02:10:12.136Z,26.60
2022-08-28T02:13:00.631Z,26.70
2022-08-28T02:15:49.191Z,26.10
2022-08-28T02:18:38.001Z,26.40
2022-08-28T02:21:25.483Z,26.40
2022-08-28T02:24:13.048Z,26.40
2022-08-28T02:27:02.483Z,26.40
2022-08-28T02:29:50.116Z,26.60
2022-08-28T02:32:38.496Z,26.50
2022-08-28T02:35:26.021Z,26.40
2022-08-28T02:38:14.477Z,26.30
2022-08-28T02:41:04.390Z,26.50
2022-08-28T02:43:52.447Z,26.50
2022-08-28T02:46:39.967Z,26.50
2022-08-28T02:49:33.067Z,26.30
2022-08-28T02:52:24.882Z,26.20
2022-08-28T02:55:15.485Z,26.20
2022-08-28T02:58:04.122Z,25.90
2022-08-28T03:00:51.610Z,25.50
2022-08-28T03:03:41.446Z,26.10
2022-08-28T03:06:32.887Z,26.30
2022-08-28T03:09:20.437Z,26.30
2022-08-28T03:12:09.656Z,26.30
2022-08-28T03:14:57.158Z,26.30
2022-08-28T03:17:45.576Z,26.30
2022-08-28T03:20:35.764Z,26.30
2022-08-28T03:23:26.692Z,26.20
2022-08-28T03:26:18.951Z,26.30
2022-08-28T03:29:06.525Z,26.10
2022-08-28T03:31:54.127Z,26.20
2022-08-28T03:34:41.728Z,26.30
2022-08-28T03:37:29.399Z,26.40
2022-08-28T03:40:17.175Z,26.30
2022-08-28T03:43:04.673Z,26.20
2022-08-28T03:46:04.125Z,26.40
2022-08-28T03:48:54.288Z,26.20
2022-08-28T03:51:42.040Z,26.30
2022-08-28T03:54:31.818Z,26.30
2022-08-28T03:57:22.397Z,26.10
2022-08-28T04:00:13.552Z,26.30
2022-08-28T04:03:01.231Z,26.50
2022-08-28T04:05:48.920Z,26.30
2022-08-28T04:08:36.868Z,26.20
2022-08-28T04:11:24.457Z,26.30
2022-08-28T04:14:17.807Z,26.30
2022-08-28T04:17:07.180Z,26.30
2022-08-28T04:19:54.992Z,26.20
2022-08-28T04:22:42.794Z,26.10
2022-08-28T04:25:32.874Z,26.30
2022-08-28T04:28:20.648Z,26.00
2022-08-28T04:31:09.227Z,26.10
2022-08-28T04:33:56.697Z,26.20
2022-08-28T04:36:44.548Z,26.10
2022-08-28T04:39:33.009Z,26.10
2022-08-28T04:42:20.542Z,26.00
2022-08-28T04:45:08.850Z,25.90
2022-08-28T04:47:56.368Z,25.90
2022-08-28T04:50:49.697Z,26.10
2022-08-28T04:53:39.237Z,26.00
2022-08-28T04:56:27.062Z,26.00
2022-08-28T04:59:14.668Z,26.10
2022-08-28T05:02:03.403Z,26.00
2022-08-28T05:04:51.017Z,26.20
2022-08-28T05:07:38.523Z,26.10
2022-08-28T05:10:27.097Z,26.10
2022-08-28T05:13:18.294Z,26.20
2022-08-28T05:16:06.985Z,26.20
2022-08-28T05:18:54.544Z,26.20
2022-08-28T05:21:42.822Z,26.20
2022-08-28T05:24:30.352Z,26.10
2022-08-28T05:27:17.871Z,26.10
2022-08-28T05:30:07.757Z,26.00
2022-08-28T05:32:55.477Z,26.20
2022-08-28T05:35:46.253Z,26.20
2022-08-28T05:38:34.967Z,26.20
2022-08-28T05:41:26.597Z,26.40
2022-08-28T05:44:17.548Z,26.30
2022-08-28T05:47:05.127Z,26.30
2022-08-28T05:49:52.697Z,26.40
2022-08-28T05:52:44.077Z,26.50
2022-08-28T05:55:31.593Z,26.60
2022-08-28T05:58:31.920Z,26.50
2022-08-28T06:01:27.259Z,26.70
2022-08-28T06:04:25.467Z,26.70
2022-08-28T06:07:15.498Z,26.70
2022-08-28T06:10:03.287Z,26.80
2022-08-28T06:12:53.047Z,26.90
2022-08-28T06:15:45.910Z,26.80
2022-08-28T06:18:33.453Z,26.90
2022-08-28T06:21:21.752Z,26.90
2022-08-28T06:24:12.151Z,26.90
2022-08-28T06:27:00.644Z,26.90
2022-08-28T06:29:48.672Z,26.80
2022-08-28T06:32:36.168Z,26.60
2022-08-28T06:35:23.827Z,26.70
2022-08-28T06:38:12.733Z,26.60
2022-08-28T06:41:00.637Z,26.80
2022-08-28T06:43:48.556Z,26.60
2022-08-28T06:46:36.942Z,27.00
2022-08-28T06:49:26.097Z,26.80
2022-08-28T06:52:13.599Z,26.80
2022-08-28T06:55:01.676Z,26.80
2022-08-28T06:57:50.749Z,27.00
2022-08-28T07:00:40.469Z,27.00
2022-08-28T07:03:30.309Z,27.00
2022-08-28T07:06:19.737Z,27.10
2022-08-28T07:09:11.440Z,27.00
2022-08-28T07:11:58.987Z,27.20
2022-08-28T07:14:46.495Z,27.00
2022-08-28T07:17:34.357Z,27.10
2022-08-28T07:20:22.739Z,27.10
2022-08-28T07:23:11.451Z,27.10
2022-08-28T07:26:00.414Z,27.00
2022-08-28T07:28:48.617Z,27.10
2022-08-28T07:31:36.641Z,26.90
2022-08-28T07:34:27.195Z,26.80
2022-08-28T07:37:18.617Z,26.80
2022-08-28T07:40:08.666Z,26.90
2022-08-28T07:43:17.472Z,27.10
2022-08-28T07:46:09.184Z,27.10
2022-08-28T07:48:58.872Z,27.10
2022-08-28T07:51:46.708Z,27.10
2022-08-28T07:54:36.202Z,26.60
2022-08-28T07:57:24.096Z,26.80
2022-08-28T08:00:13.652Z,26.50
2022-08-28T08:03:01.381Z,25.90
2022-08-28T08:06:04.602Z,26.70
2022-08-28T08:08:52.312Z,26.80
2022-08-28T08:11:39.936Z,27.10
2022-08-28T08:14:27.459Z,27.20
2022-08-28T08:17:14.973Z,27.30
2022-08-28T08:20:03.515Z,26.80
2022-08-28T08:22:51.016Z,27.00
2022-08-28T08:25:38.529Z,27.10
2022-08-28T08:28:28.567Z,27.30
2022-08-28T08:31:19.967Z,27.40
2022-08-28T08:34:09.563Z,27.60
2022-08-28T08:36:57.208Z,27.70
2022-08-28T08:39:44.812Z,27.70
2022-08-28T08:42:34.772Z,28.00
2022-08-28T08:45:26.795Z,28.10
2022-08-28T08:48:35.372Z,28.30
2022-08-28T08:51:39.592Z,28.60
2022-08-28T08:54:27.548Z,28.70
2022-08-28T08:57:16.134Z,28.90
2022-08-28T09:00:15.699Z,28.50
2022-08-28T09:03:15.550Z,28.70
2022-08-28T09:06:05.832Z,29.00
2022-08-28T09:09:07.587Z,29.20
2022-08-28T09:12:05.112Z,29.20
2022-08-28T09:15:20.692Z,29.30
2022-08-28T09:18:21.527Z,28.90
2022-08-28T09:21:09.351Z,29.20
2022-08-28T09:24:05.783Z,29.00
2022-08-28T09:27:25.071Z,28.90
2022-08-28T09:30:12.827Z,29.00
2022-08-28T09:33:01.892Z,28.70
2022-08-28T09:35:49.594Z,29.50
2022-08-28T09:38:39.119Z,29.50
2022-08-28T09:41:45.261Z,29.50
2022-08-28T09:44:32.928Z,29.80
2022-08-28T09:47:49.811Z,29.60
2022-08-28T09:50:42.547Z,30.10
2022-08-28T09:53:34.832Z,30.10
2022-08-28T09:56:39.933Z,30.20
2022-08-28T09:59:29.775Z,29.90
2022-08-28T10:02:43.342Z,29.50
2022-08-28T10:05:59.693Z,29.00
2022-08-28T10:09:13.006Z,29.00
2022-08-28T10:12:44.690Z,28.70
2022-08-28T10:16:02.308Z,29.10
2022-08-28T10:19:24.325Z,29.10
2022-08-28T10:22:40.300Z,28.90
2022-08-28T10:26:02.592Z,28.70
2022-08-28T10:29:04.728Z,28.90
2022-08-28T10:32:28.154Z,28.90
2022-08-28T10:35:25.868Z,29.10
2022-08-28T10:38:42.022Z,29.20
2022-08-28T10:41:49.457Z,29.40
2022-08-28T10:45:12.817Z,29.10
2022-08-28T10:48:30.281Z,29.10
2022-08-28T10:51:35.384Z,29.50
2022-08-28T10:54:43.981Z,29.10
2022-08-28T10:58:24.818Z,29.60
2022-08-28T11:01:31.245Z,29.90
2022-08-28T11:04:25.598Z,29.70
2022-08-28T11:07:27.053Z,30.10
2022-08-28T11:10:29.145Z,30.00
2022-08-28T11:13:58.497Z,29.50
2022-08-28T11:16:50.185Z,29.50
2022-08-28T11:20:17.711Z,29.90
2022-08-28T11:23:23.932Z,30.30
2022-08-28T11:26:23.711Z,30.10
2022-08-28T11:30:02.602Z,30.30
2022-08-28T11:32:52.573Z,29.90
2022-08-28T11:35:46.673Z,29.90
2022-08-28T11:38:43.477Z,29.70
2022-08-28T11:41:40.346Z,29.90
2022-08-28T11:44:45.126Z,30.00
2022-08-28T11:47:49.075Z,29.80
2022-08-28T11:51:18.480Z,30.10
2022-08-28T11:54:49.413Z,29.90
2022-08-28T12:01:08.057Z,30.10
2022-08-28T12:04:07.939Z,29.70
2022-08-28T12:07:17.313Z,29.60
2022-08-28T12:10:24.882Z,29.00
2022-08-28T12:13:52.577Z,29.20
2022-08-28T12:16:58.822Z,29.70
2022-08-28T12:20:11.214Z,29.70
2022-08-28T12:23:22.900Z,29.10
2022-08-28T12:26:30.116Z,29.40
2022-08-28T12:29:44.159Z,28.90
2022-08-28T12:32:47.812Z,29.00
2022-08-28T12:35:36.591Z,29.20
2022-08-28T12:38:24.763Z,29.50
2022-08-28T12:41:17.947Z,29.70
2022-08-28T12:44:12.343Z,29.50
2022-08-28T12:47:00.372Z,29.70
2022-08-28T12:49:48.029Z,29.90
2022-08-28T12:52:35.932Z,29.80
2022-08-28T12:55:25.008Z,29.80
2022-08-28T12:58:27.067Z,29.50
2022-08-28T13:01:35.624Z,28.60
2022-08-28T13:04:36.997Z,28.50
2022-08-28T13:07:34.217Z,27.90
2022-08-28T13:10:42.397Z,27.80
2022-08-28T13:13:37.989Z,27.40
2022-08-28T13:16:46.812Z,27.60
2022-08-28T13:19:36.692Z,28.20
2022-08-28T13:22:50.636Z,28.00
2022-08-28T13:25:38.897Z,28.50
2022-08-28T13:28:27.507Z,28.80
2022-08-28T13:31:34.753Z,29.20
2022-08-28T13:34:26.907Z,29.40
2022-08-28T13:37:44.247Z,29.60
2022-08-28T13:40:58.541Z,29.50
2022-08-28T13:43:47.947Z,29.60
2022-08-28T13:46:35.898Z,29.80
2022-08-28T13:49:23.927Z,29.90
2022-08-28T13:52:12.707Z,29.70
2022-08-28T13:55:01.647Z,29.70
2022-08-28T13:57:49.207Z,29.80
2022-08-28T14:00:43.466Z,29.60
2022-08-28T14:03:37.931Z,29.60
2022-08-28T14:06:31.489Z,29.30
2022-08-28T14:09:19.444Z,29.40
2022-08-28T14:12:10.410Z,29.50
2022-08-28T14:14:57.992Z,29.40
2022-08-28T14:17:45.967Z,29.40
2022-08-28T14:20:33.673Z,29.30
2022-08-28T14:23:21.335Z,29.20
2022-08-28T14:26:08.902Z,29.10
2022-08-28T14:29:03.650Z,29.40
2022-08-28T14:31:51.533Z,29.30
2022-08-28T14:34:39.113Z,29.40
2022-08-28T14:37:26.772Z,29.40
2022-08-28T14:40:14.560Z,29.30
2022-08-28T14:43:02.108Z,29.30
2022-08-28T14:45:51.050Z,29.30
2022-08-28T14:48:38.643Z,28.90
2022-08-28T14:51:27.468Z,28.90
2022-08-28T14:54:19.027Z,29.00
2022-08-28T14:57:06.932Z,29.10
2022-08-28T14:59:54.472Z,29.30
2022-08-28T15:02:41.912Z,29.30
2022-08-28T15:05:29.842Z,29.40
2022-08-28T15:08:17.767Z,29.50
2022-08-28T15:11:14.289Z,29.60
2022-08-28T15:14:06.704Z,29.70
2022-08-28T15:16:54.266Z,29.10
2022-08-28T15:19:41.824Z,29.10
2022-08-28T15:22:29.348Z,29.00
2022-08-28T15:25:17.734Z,28.60
2022-08-28T15:28:05.962Z,28.60
2022-08-28T15:30:53.497Z,28.60
2022-08-28T15:33:45.203Z,28.30
2022-08-28T15:36:36.585Z,27.90
2022-08-28T15:39:46.838Z,28.20
2022-08-28T15:42:34.352Z,28.40
2022-08-28T15:45:22.976Z,28.40
2022-08-28T15:48:11.686Z,28.40
2022-08-28T15:50:59.162Z,28.40
2022-08-28T15:53:48.087Z,28.50
2022-08-28T15:56:35.598Z,28.60
2022-08-28T15:59:23.649Z,28.50
2022-08-28T16:02:13.090Z,28.70
2022-08-28T16:05:00.672Z,28.50
2022-08-28T16:07:48.560Z,28.60
2022-08-28T16:10:36.407Z,28.70
2022-08-28T16:13:24.230Z,28.50
2022-08-28T16:16:12.377Z,28.50
2022-08-28T16:19:00.077Z,28.60
2022-08-28T16:21:47.627Z,28.60
2022-08-28T16:24:35.581Z,28.70
2022-08-28T16:27:23.515Z,28.80
2022-08-28T16:30:15.693Z,28.60
2022-08-28T16:33:08.642Z,28.60
2022-08-28T16:35:56.620Z,28.60
2022-08-28T16:38:49.683Z,28.70
2022-08-28T16:41:50.168Z,28.60
2022-08-28T16:44:37.743Z,28.60
2022-08-28T16:47:26.990Z,28.70
2022-08-28T16:50:15.963Z,28.70
2022-08-28T16:53:06.884Z,28.80
2022-08-28T16:55:55.016Z,28.80
2022-08-28T16:58:45.033Z,28.80
2022-08-28T17:01:32.748Z,28.80
2022-08-28T17:04:20.536Z,28.80
2022-08-28T17:07:08.087Z,28.80
2022-08-28T17:09:55.696Z,28.80
2022-08-28T17:12:43.494Z,28.60
2022-08-28T17:15:31.092Z,28.60
2022-08-28T17:18:18.674Z,28.50
2022-08-28T17:21:25.462Z,28.50
2022-08-28T17:24:13.636Z,28.40
2022-08-28T17:27:05.408Z,28.30
2022-08-28T17:29:53.407Z,28.20
2022-08-28T17:32:41.072Z,28.00
2022-08-28T17:35:28.697Z,27.90
2022-08-28T17:38:16.227Z,27.80
2022-08-28T17:41:06.512Z,27.60
2022-08-28T17:43:53.992Z,27.70
2022-08-28T17:46:41.727Z,27.50
2022-08-28T17:49:29.380Z,27.40
2022-08-28T17:52:16.907Z,27.30
2022-08-28T17:55:06.533Z,27.30
2022-08-28T17:57:54.040Z,27.30
2022-08-28T18:00:43.383Z,27.30
2022-08-28T18:03:31.912Z,27.20
2022-08-28T18:06:27.521Z,27.20
2022-08-28T18:09:15.413Z,27.30
2022-08-28T18:12:03.642Z,27.20
2022-08-28T18:14:51.236Z,27.20
2022-08-28T18:17:43.257Z,27.20
2022-08-28T18:20:30.778Z,27.20
2022-08-28T18:23:18.358Z,27.20
2022-08-28T18:26:07.773Z,27.10
2022-08-28T18:28:55.303Z,27.10
2022-08-28T18:31:43.694Z,27.10
2022-08-28T18:34:31.837Z,27.10
2022-08-28T18:37:19.312Z,27.10
2022-08-28T18:40:07.571Z,27.00
2022-08-28T18:42:55.168Z,27.00
2022-08-28T18:45:42.768Z,27.00
2022-08-28T18:48:32.647Z,26.90
2022-08-28T18:51:23.497Z,26.90
2022-08-28T18:54:14.351Z,26.90
2022-08-28T18:57:04.596Z,26.90
2022-08-28T18:59:53.267Z,26.80
2022-08-28T19:02:41.828Z,26.60
2022-08-28T19:05:29.852Z,26.60
2022-08-28T19:08:19.026Z,26.60
2022-08-28T19:11:13.192Z,26.60
2022-08-28T19:14:03.967Z,26.70
2022-08-28T19:16:51.674Z,26.80
2022-08-28T19:19:39.612Z,26.70
2022-08-28T19:22:29.958Z,26.80
2022-08-28T19:25:28.432Z,26.70
2022-08-28T19:28:16.617Z,26.80
2022-08-28T19:31:05.099Z,26.80
2022-08-28T19:33:52.658Z,26.70
2022-08-28T19:36:41.953Z,26.80
2022-08-28T19:39:30.217Z,26.70
2022-08-28T19:42:18.748Z,26.60
2022-08-28T19:45:08.866Z,26.60
2022-08-28T19:47:57.027Z,26.60
2022-08-28T19:50:45.732Z,26.60
2022-08-28T19:53:33.897Z,26.70
2022-08-28T19:56:25.389Z,26.80
2022-08-28T19:59:12.843Z,26.70
2022-08-28T20:02:03.192Z,26.60
2022-08-28T20:04:52.796Z,26.60
2022-08-28T20:07:40.977Z,26.60
2022-08-28T20:10:28.473Z,26.70
2022-08-28T20:13:17.690Z,26.60
2022-08-28T20:16:06.224Z,26.60
2022-08-28T20:18:55.463Z,26.60
2022-08-28T20:21:45.013Z,26.50
2022-08-28T20:24:32.648Z,26.60
2022-08-28T20:27:21.377Z,26.60
2022-08-28T20:30:11.408Z,26.50
2022-08-28T20:33:01.197Z,26.60
2022-08-28T20:35:48.788Z,26.60
2022-08-28T20:38:38.612Z,26.60
2022-08-28T20:41:26.592Z,26.50
2022-08-28T20:44:18.753Z,26.50
2022-08-28T20:47:06.837Z,26.50
2022-08-28T20:49:56.998Z,26.50
2022-08-28T20:52:44.548Z,26.30
2022-08-28T20:55:32.108Z,26.40
2022-08-28T20:58:19.617Z,26.50
2022-08-28T21:01:07.180Z,26.50
2022-08-28T21:03:54.731Z,26.60
2022-08-28T21:06:44.791Z,26.60
2022-08-28T21:09:33.479Z,26.60
2022-08-28T21:12:40.341Z,26.60
2022-08-28T21:15:28.483Z,26.60
2022-08-28T21:18:16.387Z,26.70
2022-08-28T21:21:06.953Z,26.60
2022-08-28T21:23:56.627Z,26.70
2022-08-28T21:26:47.857Z,26.70
2022-08-28T21:29:36.187Z,26.70
2022-08-28T21:32:23.882Z,26.70
2022-08-28T21:35:13.911Z,26.70
2022-08-28T21:38:01.397Z,26.70
2022-08-28T21:40:48.987Z,26.70
2022-08-28T21:43:36.492Z,26.70
2022-08-28T21:46:24.609Z,26.70
2022-08-28T21:49:12.288Z,26.60
2022-08-28T21:52:01.281Z,26.60
2022-08-28T21:54:49.791Z,26.50
2022-08-28T21:57:37.953Z,26.60
2022-08-28T22:00:25.572Z,26.70
2022-08-28T22:03:13.132Z,26.60
2022-08-28T22:06:00.867Z,26.60
2022-08-28T22:08:49.906Z,26.70
2022-08-28T22:11:37.554Z,26.70
2022-08-28T22:14:25.250Z,26.70
2022-08-28T22:17:13.383Z,26.70
2022-08-28T22:20:01.067Z,26.70
2022-08-28T22:23:07.378Z,26.50
2022-08-28T22:25:55.517Z,26.60
2022-08-28T22:28:43.712Z,26.60
2022-08-28T22:31:31.800Z,26.10
2022-08-28T22:34:20.095Z,26.10
2022-08-28T22:37:11.544Z,26.50
2022-08-28T22:39:59.379Z,26.50
2022-08-28T22:42:47.491Z,26.60
2022-08-28T22:45:35.043Z,26.00
2022-08-28T22:48:22.577Z,25.90
2022-08-28T22:51:18.624Z,25.80
2022-08-28T22:54:06.327Z,26.10
2022-08-28T22:56:53.852Z,26.00
2022-08-28T22:59:42.214Z,26.10
2022-08-28T23:02:30.592Z,26.30
2022-08-28T23:05:18.591Z,26.40
2022-08-28T23:08:06.131Z,26.30
2022-08-28T23:10:59.301Z,26.40
2022-08-28T23:13:47.297Z,26.30
2022-08-28T23:16:35.512Z,26.10
2022-08-28T23:19:23.838Z,25.90
2022-08-28T23:22:11.467Z,26.00
2022-08-28T23:24:59.024Z,26.20
2022-08-28T23:27:47.618Z,26.20
2022-08-28T23:30:35.221Z,26.40
2022-08-28T23:33:24.128Z,26.40
2022-08-28T23:36:12.329Z,26.40
2022-08-28T23:38:59.827Z,26.40
2022-08-28T23:41:47.492Z,26.40
2022-08-28T23:44:35.278Z,26.40
2022-08-28T23:47:22.912Z,26.50
2022-08-28T23:50:19.857Z,26.50
2022-08-28T23:53:08.646Z,26.30
2022-08-28T23:55:56.947Z,26.10
2022-08-28T23:58:47.197Z,25.80
